Time;durP1;ratioP1;P1;durP2;ratioP2;P2;SDS_P1;SDS_P2;PMS_P1;PMS_P2;Temp;Humidity;BMP_temperature;BMP_pressure;BME280_temperature;BME280_humidity;BME280_pressure;Samples;Min_cycle;Max_cycle;Signal;HPM_P1;HPM_P2
2021/09/04 00:01:04;;;;;;;7.97;7.17;;;;;;;14.24;93.75;98778.09;4999803;28;103357;-65
2021/09/04 00:03:33;;;;;;;12.53;9.70;;;;;;;13.96;94.14;98778.78;4994448;28;103817;-64
2021/09/04 00:06:01;;;;;;;12.10;9.33;;;;;;;13.74;96.91;98776.25;4997527;28;102923;-65
2021/09/04 00:08:29;;;;;;;12.07;9.90;;;;;;;13.71;97.28;98768.53;4998765;28;102678;-64
2021/09/04 00:10:58;;;;;;;10.23;8.80;;;;;;;13.69;97.86;98770.50;4977514;28;103304;-64
2021/09/04 00:13:27;;;;;;;10.13;9.00;;;;;;;13.61;98.50;98772.94;4996075;28;103246;-64
2021/09/04 00:15:59;;;;;;;7.50;6.80;;;;;;;13.83;97.21;98770.16;4999824;28;102681;-63
2021/09/04 00:18:30;;;;;;;6.43;5.83;;;;;;;14.02;94.98;98767.63;4994731;28;102855;-65
2021/09/04 00:20:58;;;;;;;8.20;7.40;;;;;;;14.01;93.47;98770.44;4995092;28;103467;-65
2021/09/04 00:23:27;;;;;;;8.77;7.83;;;;;;;13.62;97.18;98769.28;4999470;28;103234;-63
2021/09/04 00:25:55;;;;;;;8.97;8.07;;;;;;;13.71;96.13;98763.22;4998474;28;102639;-63
2021/09/04 00:28:23;;;;;;;11.37;8.70;;;;;;;13.40;98.29;98758.78;5000310;28;102585;-64
2021/09/04 00:30:52;;;;;;;9.70;8.80;;;;;;;13.32;100.00;98762.94;4997930;28;103258;-65
2021/09/04 00:33:20;;;;;;;9.17;8.27;;;;;;;13.50;97.98;98765.03;4998371;28;103229;-64
2021/09/04 00:35:48;;;;;;;10.97;9.43;;;;;;;13.23;100.00;98765.47;4979248;28;102687;-65
2021/09/04 00:38:16;;;;;;;10.00;8.77;;;;;;;13.36;100.00;98768.84;4997899;28;102673;-65
2021/09/04 00:40:44;;;;;;;8.57;7.70;;;;;;;13.42;99.20;98768.28;4998287;28;103333;-64
2021/09/04 00:43:12;;;;;;;11.07;9.90;;;;;;;13.15;100.00;98755.50;4980054;28;103256;-65
2021/09/04 00:45:40;;;;;;;11.03;9.87;;;;;;;13.00;100.00;98762.00;4994208;28;104118;-64
2021/09/04 00:48:09;;;;;;;11.93;10.63;;;;;;;13.13;100.00;98768.06;5000189;28;103680;-65
2021/09/04 00:50:38;;;;;;;10.13;9.13;;;;;;;13.09;100.00;98766.63;4975355;28;103274;-64
2021/09/04 00:53:06;;;;;;;10.50;9.27;;;;;;;13.35;100.00;98764.47;4997835;28;103372;-64
2021/09/04 00:55:34;;;;;;;7.60;6.80;;;;;;;13.51;99.15;98764.03;4997789;28;104006;-64
2021/09/04 00:58:04;;;;;;;7.97;6.63;;;;;;;13.61;97.34;98762.31;4994892;28;102750;-64
2021/09/04 01:00:35;;;;;;;9.80;8.83;;;;;;;13.60;96.00;98766.78;4997294;28;103248;-64
2021/09/04 01:03:03;;;;;;;9.97;8.13;;;;;;;13.32;98.13;98768.22;4988048;28;103311;-64
2021/09/04 01:05:33;;;;;;;8.63;7.80;;;;;;;13.45;97.27;98761.88;4995409;28;102603;-64
2021/09/04 01:08:02;;;;;;;9.37;7.97;;;;;;;13.46;96.71;98763.59;4999465;28;102637;-64
2021/09/04 01:10:32;;;;;;;10.67;9.57;;;;;;;13.31;96.60;98766.53;4974497;28;103398;-65
2021/09/04 01:13:00;;;;;;;12.40;10.53;;;;;;;13.23;96.52;98763.69;4992279;28;103762;-64
2021/09/04 01:15:29;;;;;;;9.90;8.67;;;;;;;13.27;96.56;98765.13;4999852;28;102742;-64
2021/09/04 01:18:00;;;;;;;11.17;10.07;;;;;;;12.98;98.83;98758.66;4993613;28;102711;-64
2021/09/04 01:20:28;;;;;;;11.47;9.97;;;;;;;13.10;98.20;98759.50;4978810;28;103217;-64
2021/09/04 01:22:58;;;;;;;11.53;10.27;;;;;;;12.90;99.62;98754.94;4994584;28;103191;-64
2021/09/04 01:25:29;;;;;;;8.03;7.33;;;;;;;12.99;100.00;98752.41;4999279;28;102648;-64
2021/09/04 01:28:00;;;;;;;11.13;9.87;;;;;;;12.99;100.00;98749.75;4999771;28;102680;-64
2021/09/04 01:30:29;;;;;;;11.27;10.27;;;;;;;12.95;100.00;98747.44;4997909;28;103336;-65
2021/09/04 01:32:57;;;;;;;11.17;10.07;;;;;;;12.95;100.00;98747.44;4997730;28;103219;-64
2021/09/04 01:35:26;;;;;;;8.17;7.40;;;;;;;13.10;99.66;98754.19;4995613;28;102646;-64
2021/09/04 01:37:54;;;;;;;11.47;10.17;;;;;;;13.07;98.88;98747.34;4975836;28;102797;-64
2021/09/04 01:40:22;;;;;;;10.50;9.40;;;;;;;13.19;97.78;98743.66;4998718;28;103293;-64
2021/09/04 01:42:50;;;;;;;8.77;7.97;;;;;;;13.22;96.82;98751.38;4980231;28;103095;-64
2021/09/04 01:45:20;;;;;;;9.63;8.27;;;;;;;13.31;95.39;98750.63;4996466;28;102611;-64
2021/09/04 01:47:48;;;;;;;8.57;7.50;;;;;;;13.40;94.18;98748.16;4998105;28;102585;-64
2021/09/04 01:50:17;;;;;;;10.30;9.17;;;;;;;13.23;93.84;98747.75;4999334;28;103341;-64
2021/09/04 01:52:47;;;;;;;8.37;7.57;;;;;;;13.05;96.67;98737.78;4995717;28;103262;-64
2021/09/04 01:55:19;;;;;;;9.67;7.83;;;;;;;13.17;95.62;98744.75;5000046;28;102974;-64
2021/09/04 01:57:47;;;;;;;9.00;8.10;;;;;;;13.07;95.98;98747.34;5000688;28;104478;-65
2021/09/04 02:00:16;;;;;;;10.20;8.57;;;;;;;12.94;96.58;98743.94;4997919;28;103260;-64
2021/09/04 02:02:46;;;;;;;8.47;7.67;;;;;;;13.04;96.34;98741.41;4988664;28;103671;-64
2021/09/04 02:05:14;;;;;;;9.60;8.37;;;;;;;12.94;96.72;98736.00;4998514;28;102703;-64
2021/09/04 02:07:42;;;;;;;10.07;8.90;;;;;;;12.97;96.74;98733.09;4998370;28;103356;-65
2021/09/04 02:10:11;;;;;;;10.17;9.17;;;;;;;12.99;94.90;98733.84;4998209;28;103366;-64
2021/09/04 02:12:39;;;;;;;8.37;7.23;;;;;;;12.94;96.49;98733.34;4980830;28;104180;-64
2021/09/04 02:15:09;;;;;;;11.10;9.70;;;;;;;12.77;96.99;98740.00;4999789;28;102711;-64
2021/09/04 02:17:38;;;;;;;10.87;9.70;;;;;;;12.79;97.03;98742.56;4998173;28;103045;-64
2021/09/04 02:20:10;;;;;;;9.20;8.33;;;;;;;12.86;95.59;98740.22;4997874;28;104676;-64
2021/09/04 02:22:39;;;;;;;17.73;9.97;;;;;;;12.52;97.46;98740.28;4999763;28;103229;-65
2021/09/04 02:25:09;;;;;;;9.50;8.60;;;;;;;12.49;98.98;98734.41;4998674;28;102770;-64
2021/09/04 02:27:38;;;;;;;9.47;8.67;;;;;;;12.62;98.08;98729.81;4999399;28;102592;-64
2021/09/04 02:30:09;;;;;;;7.03;6.37;;;;;;;12.82;96.63;98731.69;5001347;28;103336;-64
2021/09/04 02:32:38;;;;;;;12.17;10.30;;;;;;;12.61;96.16;98734.25;4997761;28;103212;-65
2021/09/04 02:35:07;;;;;;;11.27;9.97;;;;;;;12.13;99.70;98733.69;5001268;28;102611;-64
2021/09/04 02:37:37;;;;;;;9.67;8.63;;;;;;;12.21;100.00;98735.72;5000408;28;103595;-65
2021/09/04 02:40:09;;;;;;;11.97;10.77;;;;;;;11.98;100.00;98723.44;4997441;28;103184;-64
2021/09/04 02:42:38;;;;;;;9.60;8.70;;;;;;;12.18;100.00;98731.50;5003218;28;103348;-64
2021/09/04 02:45:07;;;;;;;7.83;7.03;;;;;;;12.43;100.00;98725.13;4979815;28;102729;-64
2021/09/04 02:47:36;;;;;;;9.83;7.77;;;;;;;12.54;99.05;98730.44;4996596;28;102712;-64
2021/09/04 02:50:05;;;;;;;12.37;11.17;;;;;;;12.33;99.65;98734.75;4977333;28;103586;-64
2021/09/04 02:52:33;;;;;;;10.03;9.10;;;;;;;12.28;100.00;98736.09;4997965;28;103701;-64
2021/09/04 02:55:03;;;;;;;11.83;10.33;;;;;;;12.44;100.00;98733.91;4997417;28;102848;-64
2021/09/04 02:57:32;;;;;;;12.13;10.73;;;;;;;12.34;98.92;98725.00;4999265;28;102956;-64
2021/09/04 03:00:01;;;;;;;7.97;7.27;;;;;;;12.38;100.00;98729.94;4978919;28;104356;-64
2021/09/04 03:02:29;;;;;;;9.10;8.20;;;;;;;12.47;99.14;98736.31;5000528;28;103280;-64
2021/09/04 03:04:57;;;;;;;7.67;6.97;;;;;;;12.46;99.76;98727.50;4995100;28;104099;-64
2021/09/04 03:07:26;;;;;;;7.23;6.53;;;;;;;12.58;98.19;98723.06;4999197;28;102636;-64
2021/09/04 03:09:54;;;;;;;7.23;6.53;;;;;;;12.59;97.35;98724.75;4993670;28;103275;-64
2021/09/04 03:12:23;;;;;;;10.43;9.43;;;;;;;12.11;100.00;98724.16;4983812;28;104135;-64
2021/09/04 03:14:51;;;;;;;8.93;8.03;;;;;;;12.28;100.00;98733.44;4999237;28;103694;-64
2021/09/04 03:17:21;;;;;;;10.83;9.73;;;;;;;12.30;100.00;98728.84;4998457;28;103093;-64
2021/09/04 03:19:50;;;;;;;11.17;10.10;;;;;;;12.24;100.00;98724.88;4993193;28;103876;-64
2021/09/04 03:22:18;;;;;;;11.53;10.43;;;;;;;12.32;100.00;98721.66;4998903;28;103245;-63
2021/09/04 03:24:46;;;;;;;10.37;9.37;;;;;;;12.38;99.47;98715.88;4998189;28;102626;-64
2021/09/04 03:27:14;;;;;;;8.50;7.60;;;;;;;12.42;98.40;98723.44;4999859;28;102617;-62
2021/09/04 03:29:44;;;;;;;9.33;8.33;;;;;;;12.52;96.80;98723.56;5000113;28;103992;-62
2021/09/04 03:32:13;;;;;;;8.50;7.60;;;;;;;12.43;97.00;98724.28;4998663;28;103359;-63
2021/09/04 03:34:42;;;;;;;6.90;6.23;;;;;;;12.47;96.82;98720.41;4999988;28;102827;-64
2021/09/04 03:37:10;;;;;;;12.73;11.47;;;;;;;11.94;100.00;98728.13;4998483;28;104171;-63
2021/09/04 03:39:38;;;;;;;12.33;11.03;;;;;;;11.69;100.00;98733.63;4998080;28;103305;-64
2021/09/04 03:42:07;;;;;;;9.57;8.67;;;;;;;11.97;100.00;98717.31;4998301;28;103354;-64
2021/09/04 03:44:35;;;;;;;11.07;9.97;;;;;;;12.00;100.00;98725.00;4995378;28;103030;-63
2021/09/04 03:47:05;;;;;;;10.17;9.17;;;;;;;12.09;100.00;98721.66;4996879;28;102751;-63
2021/09/04 03:49:34;;;;;;;7.67;6.97;;;;;;;12.16;100.00;98728.13;4997255;28;103358;-64
2021/09/04 03:52:04;;;;;;;10.87;9.77;;;;;;;12.09;100.00;98711.06;4999664;28;103201;-79
2021/09/04 03:54:33;;;;;;;11.43;10.33;;;;;;;12.02;100.00;98715.13;4993636;28;102654;-65
2021/09/04 03:57:01;;;;;;;11.60;10.40;;;;;;;12.07;100.00;98725.38;4997878;28;102899;-65
2021/09/04 03:59:30;;;;;;;8.13;7.33;;;;;;;12.26;100.00;98719.47;4996772;28;103404;-65
2021/09/04 04:01:58;;;;;;;7.13;6.43;;;;;;;12.29;99.64;98721.88;4999250;28;103256;-60
2021/09/04 04:04:29;;;;;;;7.67;6.70;;;;;;;12.25;98.33;98718.63;4995397;28;102604;-60
2021/09/04 04:06:58;;;;;;;12.07;10.90;;;;;;;12.00;100.00;98717.06;4996875;28;103957;-60
2021/09/04 04:09:26;;;;;;;11.90;10.63;;;;;;;11.78;100.00;98722.34;4993861;28;103259;-61
2021/09/04 04:11:56;;;;;;;8.87;8.03;;;;;;;11.88;100.00;98717.16;5000333;28;103367;-60
2021/09/04 04:14:24;;;;;;;10.07;9.17;;;;;;;11.97;100.00;98722.59;4976800;28;102657;-60
2021/09/04 04:16:52;;;;;;;12.17;11.03;;;;;;;11.53;100.00;98728.63;4997497;28;102679;-60
2021/09/04 04:19:20;;;;;;;11.87;10.67;;;;;;;11.58;100.00;98721.19;4994415;28;103220;-65
2021/09/04 04:21:50;;;;;;;14.50;12.67;;;;;;;11.44;100.00;98725.81;4999450;28;103191;-65
2021/09/04 04:24:18;;;;;;;13.37;11.93;;;;;;;11.32;100.00;98719.63;4996856;28;102924;-65
2021/09/04 04:26:47;;;;;;;15.30;12.73;;;;;;;11.28;100.00;98714.72;4994017;28;102684;-65
2021/09/04 04:29:16;;;;;;;19.97;12.50;;;;;;;11.25;100.00;98717.59;4978018;28;103299;-65
2021/09/04 04:31:46;;;;;;;15.83;13.10;;;;;;;11.24;100.00;98721.16;4978077;28;103313;-65
2021/09/04 04:34:14;;;;;;;15.10;12.47;;;;;;;11.21;100.00;98721.41;4998170;28;102699;-65
2021/09/04 04:36:42;;;;;;;16.10;13.83;;;;;;;11.08;100.00;98721.47;4994031;28;103213;-65
2021/09/04 04:39:12;;;;;;;11.90;10.77;;;;;;;11.13;100.00;98723.78;4995546;28;103862;-65
2021/09/04 04:41:40;;;;;;;18.07;13.50;;;;;;;11.16;100.00;98728.84;4997175;28;103192;-64
2021/09/04 04:44:09;;;;;;;14.23;12.73;;;;;;;11.23;100.00;98724.78;4999567;28;102655;-65
2021/09/04 04:46:37;;;;;;;11.87;10.70;;;;;;;11.25;100.00;98721.06;4997951;28;102680;-65
2021/09/04 04:49:06;;;;;;;14.47;12.67;;;;;;;11.31;100.00;98733.00;4997204;28;103873;-64
2021/09/04 04:51:36;;;;;;;11.63;10.40;;;;;;;11.52;100.00;98720.78;4992848;28;104116;-65
2021/09/04 04:54:04;;;;;;;10.73;9.63;;;;;;;11.70;100.00;98734.47;4994200;28;102902;-65
2021/09/04 04:56:34;;;;;;;13.67;12.07;;;;;;;11.45;100.00;98732.81;5000631;28;103084;-65
2021/09/04 04:59:03;;;;;;;12.50;10.73;;;;;;;11.53;100.00;98725.13;4999895;28;104361;-65
2021/09/04 05:01:32;;;;;;;11.03;9.93;;;;;;;11.55;100.00;98726.69;4996135;28;103231;-65
2021/09/04 05:04:06;;;;;;;11.57;10.47;;;;;;;11.38;100.00;98727.13;4994924;28;102679;-65
2021/09/04 05:06:34;;;;;;;13.57;10.80;;;;;;;11.43;100.00;98726.75;4998461;28;102765;-65
2021/09/04 05:09:02;;;;;;;13.03;10.93;;;;;;;11.35;100.00;98731.78;4997175;28;103228;-65
2021/09/04 05:11:30;;;;;;;11.60;10.50;;;;;;;11.35;100.00;98734.44;4993091;28;103209;-65
2021/09/04 05:14:01;;;;;;;11.47;10.47;;;;;;;11.31;100.00;98735.63;4998471;28;102961;-65
2021/09/04 05:16:30;;;;;;;12.40;11.20;;;;;;;11.42;100.00;98730.38;4996086;28;103833;-65
2021/09/04 05:18:58;;;;;;;14.10;12.40;;;;;;;11.48;100.00;98730.75;4992282;28;103948;-65
2021/09/04 05:21:26;;;;;;;15.03;11.60;;;;;;;11.61;100.00;98734.19;5004022;28;103205;-65
2021/09/04 05:23:54;;;;;;;9.80;8.80;;;;;;;11.82;100.00;98729.06;5003177;28;102655;-65
2021/09/04 05:26:22;;;;;;;12.80;11.47;;;;;;;11.86;100.00;98729.69;5000907;28;103054;-61
2021/09/04 05:28:51;;;;;;;10.33;9.33;;;;;;;12.02;100.00;98731.03;4980725;28;104620;-61
2021/09/04 05:31:20;;;;;;;12.63;11.50;;;;;;;12.02;100.00;98731.03;5001203;28;103222;-62
2021/09/04 05:33:48;;;;;;;13.30;11.33;;;;;;;12.13;100.00;98735.47;5002615;28;103126;-62
2021/09/04 05:36:17;;;;;;;13.57;12.27;;;;;;;12.01;100.00;98731.97;5002552;28;102632;-62
2021/09/04 05:38:44;;;;;;;13.73;11.47;;;;;;;12.13;100.00;98733.69;4982014;28;103320;-62
2021/09/04 05:41:12;;;;;;;13.27;11.87;;;;;;;12.07;100.00;98738.63;5000773;28;103216;-61
2021/09/04 05:43:40;;;;;;;12.63;11.43;;;;;;;12.23;100.00;98738.25;4980645;28;102787;-61
2021/09/04 05:46:08;;;;;;;13.47;12.17;;;;;;;12.17;100.00;98735.13;4970689;28;103076;-61
2021/09/04 05:48:38;;;;;;;10.50;9.50;;;;;;;12.38;100.00;98739.72;5001189;28;104678;-65
2021/09/04 05:51:06;;;;;;;13.90;12.47;;;;;;;12.36;100.00;98738.97;5004256;28;103221;-65
2021/09/04 05:53:34;;;;;;;13.57;11.73;;;;;;;12.63;100.00;98731.50;4995336;28;103185;-65
2021/09/04 05:56:02;;;;;;;11.03;9.93;;;;;;;12.87;100.00;98740.13;5002292;28;102721;-65
2021/09/04 05:58:30;;;;;;;11.87;10.47;;;;;;;12.83;100.00;98746.63;5001712;28;103307;-66
2021/09/04 06:00:58;;;;;;;12.57;11.17;;;;;;;12.88;100.00;98747.13;5000978;28;103229;-65
2021/09/04 06:03:26;;;;;;;11.47;10.37;;;;;;;13.18;100.00;98734.03;4999386;28;102665;-65
2021/09/04 06:05:59;;;;;;;10.00;9.00;;;;;;;13.29;100.00;98736.66;5002127;28;102697;-65
2021/09/04 06:08:27;;;;;;;13.50;12.20;;;;;;;13.37;100.00;98733.34;5000683;28;103400;-64
2021/09/04 06:10:55;;;;;;;12.80;10.77;;;;;;;13.44;100.00;98734.53;4995026;28;103205;-64
2021/09/04 06:13:23;;;;;;;11.60;10.23;;;;;;;13.59;100.00;98732.38;5002879;28;102663;-64
2021/09/04 06:15:51;;;;;;;10.87;9.87;;;;;;;13.75;100.00;98730.16;4982701;28;102765;-64
2021/09/04 06:18:21;;;;;;;8.53;7.73;;;;;;;14.03;100.00;98724.16;4995646;28;104342;-64
2021/09/04 06:20:49;;;;;;;9.93;9.00;;;;;;;14.25;99.17;98734.63;5001985;28;103206;-64
2021/09/04 06:23:19;;;;;;;8.70;7.90;;;;;;;14.34;98.63;98730.34;4998486;28;102671;-60
2021/09/04 06:25:46;;;;;;;12.43;10.70;;;;;;;14.24;98.28;98730.28;5002701;28;102674;-59
2021/09/04 06:28:15;;;;;;;8.43;7.63;;;;;;;14.51;98.42;98733.22;5001640;28;103327;-59
2021/09/04 06:30:42;;;;;;;11.97;9.03;;;;;;;14.65;96.84;98728.50;5000097;28;103286;-59
2021/09/04 06:33:11;;;;;;;9.07;8.17;;;;;;;14.74;96.76;98738.31;4995900;28;102815;-59
2021/09/04 06:35:39;;;;;;;11.80;9.90;;;;;;;14.67;97.57;98737.19;4983651;28;102715;-60
2021/09/04 06:38:06;;;;;;;12.57;11.37;;;;;;;14.66;97.61;98735.50;5000635;28;103223;-63
2021/09/04 06:40:36;;;;;;;12.13;10.93;;;;;;;14.91;96.50;98735.00;5001690;28;103269;-66
2021/09/04 06:43:04;;;;;;;10.43;9.30;;;;;;;14.93;97.47;98733.06;5000047;28;102707;-65
2021/09/04 06:45:32;;;;;;;15.03;10.67;;;;;;;15.03;96.01;98731.25;5001414;28;102620;-65
2021/09/04 06:48:00;;;;;;;11.90;10.70;;;;;;;15.08;95.75;98726.34;5000846;28;103234;-59
2021/09/04 06:50:28;;;;;;;12.23;10.93;;;;;;;15.24;95.34;98728.47;5001236;28;103193;-59
2021/09/04 06:52:56;;;;;;;12.67;11.17;;;;;;;15.49;93.50;98726.13;5000943;28;102732;-59
2021/09/04 06:55:24;;;;;;;20.23;11.40;;;;;;;15.52;93.45;98731.16;5002935;28;102723;-59
2021/09/04 06:57:53;;;;;;;11.77;10.67;;;;;;;15.59;93.29;98732.28;4977042;28;103281;-59
2021/09/04 07:00:22;;;;;;;12.40;11.10;;;;;;;15.84;92.10;98738.00;4999338;28;103263;-65
2021/09/04 07:02:50;;;;;;;11.27;10.03;;;;;;;15.81;92.50;98738.28;5001582;28;103433;-66
2021/09/04 07:05:23;;;;;;;17.53;11.43;;;;;;;16.01;91.42;98738.09;5001108;28;104108;-66
2021/09/04 07:07:51;;;;;;;11.73;10.43;;;;;;;16.14;90.39;98729.81;4998365;28;104466;-66
2021/09/04 07:10:24;;;;;;;10.40;8.93;;;;;;;16.37;89.81;98725.78;4999034;28;103322;-68
2021/09/04 07:13:03;;;;;;;11.97;10.77;;;;;;;16.41;88.89;98729.00;4999163;28;102598;-66
2021/09/04 07:15:31;;;;;;;12.60;11.03;;;;;;;16.48;88.21;98730.91;5001814;28;103787;-67
2021/09/04 07:17:59;;;;;;;10.87;9.77;;;;;;;16.63;88.23;98733.97;4995192;28;104388;-66
2021/09/04 07:20:27;;;;;;;10.53;9.33;;;;;;;16.94;87.02;98737.19;4999556;28;102593;-59
2021/09/04 07:22:55;;;;;;;10.83;9.73;;;;;;;17.02;85.56;98734.59;5000202;28;102969;-66
2021/09/04 07:25:23;;;;;;;10.93;9.80;;;;;;;17.03;85.71;98734.47;4996123;28;104150;-67
2021/09/04 07:27:51;;;;;;;10.40;9.50;;;;;;;17.47;84.15;98739.88;5000610;28;103427;-60
2021/09/04 07:30:20;;;;;;;9.60;8.43;;;;;;;17.85;83.30;98737.75;5001004;28;103215;-60
2021/09/04 07:32:48;;;;;;;10.80;9.80;;;;;;;17.66;82.85;98737.94;5000285;28;102653;-59
2021/09/04 07:35:16;;;;;;;11.48;10.30;;;;;;;17.91;82.39;98737.13;4980581;28;104169;-60
2021/09/04 07:37:44;;;;;;;13.65;10.00;;;;;;;18.19;81.33;98731.66;4981549;28;103305;-60
2021/09/04 07:40:13;;;;;;;9.57;8.60;;;;;;;18.83;79.04;98742.69;4991898;28;102965;-62
2021/09/04 07:42:41;;;;;;;8.15;7.35;;;;;;;19.47;77.19;98735.84;4988894;28;102665;-62
2021/09/04 07:45:10;;;;;;;9.55;7.80;;;;;;;19.78;75.36;98746.75;4990425;28;102725;-63
2021/09/04 07:47:39;;;;;;;8.88;7.68;;;;;;;19.79;75.15;98741.19;4994815;28;103253;-60
2021/09/04 07:50:08;;;;;;;8.18;7.32;;;;;;;19.82;76.11;98746.22;5000568;28;103718;-59
2021/09/04 07:52:36;;;;;;;9.15;7.95;;;;;;;20.07;75.43;98739.03;4997823;28;102735;-60
2021/09/04 07:55:05;;;;;;;9.48;8.57;;;;;;;20.49;72.95;98738.81;4980199;28;102778;-60
2021/09/04 07:57:33;;;;;;;8.88;7.82;;;;;;;20.59;72.56;98739.44;4995984;28;103343;-60
2021/09/04 08:00:01;;;;;;;9.00;8.10;;;;;;;21.00;69.93;98737.41;4980890;28;103257;-60
2021/09/04 08:02:40;;;;;;;10.18;9.02;;;;;;;20.90;70.92;98736.78;4999070;28;103721;-60
2021/09/04 08:05:10;;;;;;;7.80;6.95;;;;;;;21.76;69.31;98738.28;4999414;28;102701;-60
2021/09/04 08:07:38;;;;;;;6.85;6.15;;;;;;;22.36;66.60;98730.19;4976211;28;103993;-60
2021/09/04 08:10:07;;;;;;;10.18;8.82;;;;;;;21.73;66.68;98738.63;4997019;28;103818;-61
2021/09/04 08:12:37;;;;;;;9.68;7.88;;;;;;;22.02;66.77;98751.38;4997663;28;102663;-60
2021/09/04 08:15:06;;;;;;;8.48;7.60;;;;;;;22.20;66.56;98749.19;4995765;28;102974;-60
2021/09/04 08:17:34;;;;;;;10.15;8.40;;;;;;;22.17;66.21;98744.16;4994057;28;103958;-60
2021/09/04 08:20:05;;;;;;;7.55;6.85;;;;;;;22.79;64.52;98738.47;4996558;28;103074;-67
2021/09/04 08:22:34;;;;;;;8.82;7.93;;;;;;;23.19;62.87;98745.16;4997811;28;102627;-66
2021/09/04 08:25:03;;;;;;;8.77;7.97;;;;;;;22.79;63.97;98733.09;4997687;28;102730;-66
2021/09/04 08:27:31;;;;;;;9.07;8.13;;;;;;;23.54;62.99;98742.50;4998913;28;103612;-67
2021/09/04 08:29:59;;;;;;;7.13;6.53;;;;;;;24.15;63.86;98745.56;4978624;28;103227;-66
2021/09/04 08:32:28;;;;;;;6.88;6.28;;;;;;;24.67;61.99;98742.41;4996302;28;102958;-67
2021/09/04 08:34:56;;;;;;;9.43;7.47;;;;;;;24.22;60.91;98749.16;4996353;28;104525;-66
2021/09/04 08:37:25;;;;;;;8.15;7.45;;;;;;;24.49;58.25;98750.16;4997073;28;103306;-67
2021/09/04 08:39:53;;;;;;;7.38;6.78;;;;;;;24.87;58.63;98750.63;4996254;28;103218;-66
2021/09/04 08:42:21;;;;;;;7.68;6.97;;;;;;;25.17;59.45;98746.59;4995161;28;102554;-61
2021/09/04 08:44:49;;;;;;;6.13;5.43;;;;;;;25.70;57.73;98756.56;4979087;28;102695;-60
2021/09/04 08:47:19;;;;;;;8.80;6.30;;;;;;;25.53;57.79;98749.03;4998229;28;104270;-60
2021/09/04 08:49:48;;;;;;;7.40;6.70;;;;;;;25.33;55.71;98748.94;4994881;28;103266;-66
2021/09/04 08:52:18;;;;;;;7.25;6.55;;;;;;;25.01;58.18;98757.78;4998062;28;102638;-60
2021/09/04 08:54:48;;;;;;;9.02;7.70;;;;;;;24.37;56.22;98752.56;4998713;28;102641;-60
2021/09/04 08:57:16;;;;;;;8.07;7.20;;;;;;;25.46;55.24;98758.97;4998471;28;103905;-66
2021/09/04 08:59:49;;;;;;;7.97;7.35;;;;;;;25.82;54.65;98754.94;4996528;28;103204;-60
2021/09/04 09:02:18;;;;;;;7.75;7.05;;;;;;;26.10;53.15;98752.03;4980746;28;104126;-60
2021/09/04 09:05:00;;;;;;;5.30;4.90;;;;;;;26.92;49.86;98746.13;4998999;28;102794;-66
2021/09/04 09:07:42;;;;;;;6.45;5.85;;;;;;;26.69;52.70;98743.84;4997019;28;103305;-66
2021/09/04 09:10:31;;;;;;;6.65;6.05;;;;;;;26.86;49.46;98744.25;4973570;28;103059;-66
2021/09/04 09:12:59;;;;;;;6.57;5.97;;;;;;;26.52;52.62;98745.34;4994412;28;102634;-66
2021/09/04 09:15:29;;;;;;;8.30;5.90;;;;;;;26.28;52.13;98743.28;4978846;28;102816;-67
2021/09/04 09:18:00;;;;;;;7.25;6.65;;;;;;;25.45;52.33;98743.78;4992706;28;104053;-67
2021/09/04 09:20:29;;;;;;;6.53;6.03;;;;;;;26.26;51.65;98743.50;4997352;28;103213;-66
2021/09/04 09:23:06;;;;;;;6.45;5.78;;;;;;;26.67;51.05;98742.38;4996326;28;102665;-67
2021/09/04 09:25:35;;;;;;;6.65;5.38;;;;;;;27.45;48.60;98744.03;4997484;28;103806;-60
2021/09/04 09:28:09;;;;;;;7.40;6.68;;;;;;;26.90;49.02;98759.88;4980756;28;103300;-67
2021/09/04 09:30:40;;;;;;;6.22;5.72;;;;;;;27.67;47.25;98750.78;4981676;28;103308;-60
2021/09/04 09:33:09;;;;;;;5.70;5.20;;;;;;;27.53;48.99;98749.19;5000273;28;103081;-67
2021/09/04 09:35:42;;;;;;;7.70;5.45;;;;;;;27.71;49.79;98746.56;5002617;28;102644;-67
2021/09/04 09:38:12;;;;;;;7.60;6.60;;;;;;;27.55;47.25;98741.66;5000745;28;103287;-68
2021/09/04 09:40:42;;;;;;;7.18;6.57;;;;;;;27.61;49.19;98738.91;5001843;28;103211;-68
2021/09/04 09:43:16;;;;;;;7.63;5.93;;;;;;;27.39;48.11;98742.97;5002237;28;102563;-68
2021/09/04 09:45:49;;;;;;;6.90;6.20;;;;;;;27.33;47.64;98745.72;5003004;28;103891;-68
2021/09/04 09:48:20;;;;;;;5.38;4.88;;;;;;;28.07;47.36;98744.00;4981278;28;103103;-68
2021/09/04 09:50:49;;;;;;;5.85;5.05;;;;;;;28.23;47.13;98737.22;5000840;28;103234;-69
2021/09/04 09:53:18;;;;;;;5.60;4.80;;;;;;;28.33;46.68;98736.69;4995594;28;102719;-69
2021/09/04 09:55:50;;;;;;;5.70;4.93;;;;;;;27.28;48.62;98740.13;5002174;28;102658;-68
2021/09/04 09:58:19;;;;;;;6.65;5.63;;;;;;;27.77;47.84;98739.41;5001497;28;103259;-68
2021/09/04 10:00:47;;;;;;;7.13;6.47;;;;;;;26.40;49.51;98738.91;4999442;28;103141;-68
2021/09/04 10:03:16;;;;;;;6.25;5.65;;;;;;;27.39;47.44;98734.84;4981561;28;102728;-68
2021/09/04 10:05:47;;;;;;;6.78;6.10;;;;;;;27.58;48.53;98723.06;4999945;28;102694;-68
2021/09/04 10:08:16;;;;;;;5.88;5.38;;;;;;;27.58;49.30;98728.50;4998878;28;103240;-67
2021/09/04 10:10:44;;;;;;;6.82;6.13;;;;;;;26.80;50.52;98726.13;5001024;28;103200;-69
2021/09/04 10:13:15;;;;;;;6.72;6.13;;;;;;;25.89;50.70;98717.03;4998033;28;102574;-68
2021/09/04 10:15:48;;;;;;;7.30;6.30;;;;;;;25.69;50.11;98721.59;4999309;28;103634;-68
2021/09/04 10:18:17;;;;;;;5.95;5.32;;;;;;;26.53;51.45;98719.09;4996919;28;104189;-68
2021/09/04 10:20:46;;;;;;;5.60;4.88;;;;;;;24.86;49.30;98711.97;4983490;28;103302;-69
2021/09/04 10:23:22;;;;;;;5.13;4.50;;;;;;;26.85;49.79;98710.91;4998938;28;102617;-69
2021/09/04 10:25:51;;;;;;;6.55;5.13;;;;;;;27.50;45.32;98719.78;4998778;28;103502;-60
2021/09/04 10:28:20;;;;;;;5.78;4.30;;;;;;;27.76;45.41;98719.63;4994910;28;103320;-60
2021/09/04 10:30:54;;;;;;;4.70;4.18;;;;;;;27.70;44.90;98714.22;4999566;28;103178;-60
2021/09/04 10:33:26;;;;;;;4.63;4.22;;;;;;;27.64;45.08;98707.78;4996689;28;102828;-67
2021/09/04 10:35:56;;;;;;;7.38;5.40;;;;;;;26.02;46.06;98716.22;4998690;28;102595;-67
2021/09/04 10:38:37;;;;;;;5.80;5.20;;;;;;;27.24;45.02;98703.63;4978453;28;104011;-69
2021/09/04 10:41:23;;;;;;;6.93;5.03;;;;;;;26.75;44.55;98698.81;4997146;28;102648;-68
2021/09/04 10:43:57;;;;;;;5.47;4.05;;;;;;;26.89;47.61;98701.28;4999902;28;102709;-69
2021/09/04 10:46:26;;;;;;;5.00;4.50;;;;;;;27.62;44.84;98696.34;4990949;28;102730;-68
2021/09/04 10:49:00;;;;;;;5.30;4.68;;;;;;;27.52;46.70;98701.41;4997941;28;103432;-69
2021/09/04 10:51:51;;;;;;;5.97;4.93;;;;;;;28.05;43.11;98688.28;4994244;28;103340;-68
2021/09/04 10:54:54;;;;;;;4.97;4.57;;;;;;;28.10;43.42;98686.56;4999171;28;102706;-70
2021/09/04 10:57:22;;;;;;;5.22;4.82;;;;;;;27.93;43.04;98690.84;5000298;28;104495;-68
2021/09/04 11:00:03;;;;;;;5.15;4.20;;;;;;;27.96;43.66;98687.69;4995361;28;104031;-68
2021/09/04 11:02:43;;;;;;;4.55;4.20;;;;;;;27.94;42.95;98686.25;4995248;28;103254;-61
2021/09/04 11:05:49;;;;;;;4.57;4.18;;;;;;;28.26;42.99;98681.63;4999315;28;102546;-61
2021/09/04 11:08:34;;;;;;;4.82;4.43;;;;;;;28.53;41.64;98674.84;4998263;28;102705;-70
2021/09/04 11:11:35;;;;;;;4.50;4.10;;;;;;;28.84;41.56;98680.16;4995643;28;103318;-69
2021/09/04 11:14:16;;;;;;;5.10;4.15;;;;;;;28.24;40.15;98670.97;4996910;28;103218;-62
2021/09/04 11:16:52;;;;;;;4.88;4.18;;;;;;;27.47;42.69;98677.66;4981868;28;102771;-69
2021/09/04 11:19:23;;;;;;;6.38;3.90;;;;;;;27.44;43.02;98669.09;4992798;28;102640;-59
2021/09/04 11:21:54;;;;;;;4.13;3.83;;;;;;;28.07;40.68;98667.97;4999550;28;104034;-59
2021/09/04 11:24:28;;;;;;;3.85;3.50;;;;;;;28.14;41.85;98671.50;4997023;28;103288;-69
2021/09/04 11:27:00;;;;;;;4.30;3.83;;;;;;;28.33;41.27;98675.03;4998726;28;102663;-60
2021/09/04 11:29:28;;;;;;;4.25;3.88;;;;;;;28.32;40.00;98667.13;4995055;28;103890;-60